sensor_id;sensor_type;location;lat;lon;timestamp;P1;durP1;ratioP1;P2;durP2;ratioP2
40807;SDS011;26523;52.504;13.498;2023-02-11T00:01:45;36.13;;;12.10;;
40807;SDS011;26523;52.504;13.498;2023-02-11T00:04:11;30.40;;;10.63;;
40807;SDS011;26523;52.504;13.498;2023-02-11T00:06:37;31.70;;;11.13;;
40807;SDS011;26523;52.504;13.498;2023-02-11T00:09:03;27.65;;;10.10;;
40807;SDS011;26523;52.504;13.498;2023-02-11T00:11:29;47.75;;;11.43;;
40807;SDS011;26523;52.504;13.498;2023-02-11T00:13:59;28.13;;;11.70;;
40807;SDS011;26523;52.504;13.498;2023-02-11T00:16:26;43.08;;;12.35;;
40807;SDS011;26523;52.504;13.498;2023-02-11T00:18:53;28.52;;;11.25;;
40807;SDS011;26523;52.504;13.498;2023-02-11T00:21:20;29.75;;;10.65;;
40807;SDS011;26523;52.504;13.498;2023-02-11T00:23:48;33.15;;;11.25;;
40807;SDS011;26523;52.504;13.498;2023-02-11T00:26:15;36.30;;;11.60;;
40807;SDS011;26523;52.504;13.498;2023-02-11T00:28:44;25.90;;;9.85;;
40807;SDS011;26523;52.504;13.498;2023-02-11T00:31:11;29.88;;;11.77;;
40807;SDS011;26523;52.504;13.498;2023-02-11T00:33:37;31.13;;;11.52;;
40807;SDS011;26523;52.504;13.498;2023-02-11T00:36:04;28.55;;;11.48;;
40807;SDS011;26523;52.504;13.498;2023-02-11T00:38:35;24.42;;;10.30;;
40807;SDS011;26523;52.504;13.498;2023-02-11T00:41:01;31.75;;;10.80;;
40807;SDS011;26523;52.504;13.498;2023-02-11T00:43:27;33.92;;;11.40;;
40807;SDS011;26523;52.504;13.498;2023-02-11T00:45:53;28.15;;;10.38;;
40807;SDS011;26523;52.504;13.498;2023-02-11T00:48:18;36.00;;;10.70;;
40807;SDS011;26523;52.504;13.498;2023-02-11T00:50:44;26.58;;;11.23;;
40807;SDS011;26523;52.504;13.498;2023-02-11T00:53:10;28.95;;;11.45;;
40807;SDS011;26523;52.504;13.498;2023-02-11T00:55:35;27.83;;;9.70;;
40807;SDS011;26523;52.504;13.498;2023-02-11T00:58:01;22.80;;;8.75;;
40807;SDS011;26523;52.504;13.498;2023-02-11T01:00:27;40.40;;;11.55;;
40807;SDS011;26523;52.504;13.498;2023-02-11T01:02:53;31.90;;;11.20;;
40807;SDS011;26523;52.504;13.498;2023-02-11T01:05:19;28.02;;;8.98;;
40807;SDS011;26523;52.504;13.498;2023-02-11T01:07:45;28.92;;;12.75;;
40807;SDS011;26523;52.504;13.498;2023-02-11T01:10:13;31.48;;;10.82;;
40807;SDS011;26523;52.504;13.498;2023-02-11T01:12:39;31.30;;;11.68;;
40807;SDS011;26523;52.504;13.498;2023-02-11T01:15:05;32.92;;;10.63;;
40807;SDS011;26523;52.504;13.498;2023-02-11T01:17:33;33.42;;;11.30;;
40807;SDS011;26523;52.504;13.498;2023-02-11T01:20:00;30.48;;;10.70;;
40807;SDS011;26523;52.504;13.498;2023-02-11T01:22:30;31.67;;;10.18;;
40807;SDS011;26523;52.504;13.498;2023-02-11T01:24:58;36.95;;;11.98;;
40807;SDS011;26523;52.504;13.498;2023-02-11T01:27:24;36.33;;;10.38;;
40807;SDS011;26523;52.504;13.498;2023-02-11T01:29:50;31.17;;;10.65;;
40807;SDS011;26523;52.504;13.498;2023-02-11T01:32:16;37.28;;;11.65;;
40807;SDS011;26523;52.504;13.498;2023-02-11T01:34:42;30.95;;;10.02;;
40807;SDS011;26523;52.504;13.498;2023-02-11T01:37:07;29.27;;;11.55;;
40807;SDS011;26523;52.504;13.498;2023-02-11T01:39:33;36.03;;;11.32;;
40807;SDS011;26523;52.504;13.498;2023-02-11T01:42:00;24.05;;;8.50;;
40807;SDS011;26523;52.504;13.498;2023-02-11T01:44:30;28.58;;;10.75;;
40807;SDS011;26523;52.504;13.498;2023-02-11T01:47:01;44.97;;;11.60;;
40807;SDS011;26523;52.504;13.498;2023-02-11T01:49:31;26.70;;;9.57;;
40807;SDS011;26523;52.504;13.498;2023-02-11T01:54:43;29.15;;;10.55;;
40807;SDS011;26523;52.504;13.498;2023-02-11T01:57:31;27.95;;;10.23;;
40807;SDS011;26523;52.504;13.498;2023-02-11T02:00:13;32.08;;;11.98;;
40807;SDS011;26523;52.504;13.498;2023-02-11T02:10:45;28.27;;;9.95;;
40807;SDS011;26523;52.504;13.498;2023-02-11T02:13:12;28.88;;;11.13;;
40807;SDS011;26523;52.504;13.498;2023-02-11T02:15:40;23.75;;;10.23;;
40807;SDS011;26523;52.504;13.498;2023-02-11T02:18:21;30.63;;;10.30;;
40807;SDS011;26523;52.504;13.498;2023-02-11T02:23:28;24.33;;;9.65;;
40807;SDS011;26523;52.504;13.498;2023-02-11T02:34:18;31.98;;;11.32;;
40807;SDS011;26523;52.504;13.498;2023-02-11T02:36:48;31.02;;;11.65;;
40807;SDS011;26523;52.504;13.498;2023-02-11T02:39:23;39.25;;;10.52;;
40807;SDS011;26523;52.504;13.498;2023-02-11T02:41:53;31.10;;;11.77;;
40807;SDS011;26523;52.504;13.498;2023-02-11T02:44:20;27.27;;;11.05;;
40807;SDS011;26523;52.504;13.498;2023-02-11T02:46:46;26.40;;;12.07;;
40807;SDS011;26523;52.504;13.498;2023-02-11T02:49:13;32.33;;;10.55;;
40807;SDS011;26523;52.504;13.498;2023-02-11T03:00:23;27.40;;;10.23;;
40807;SDS011;26523;52.504;13.498;2023-02-11T03:03:09;32.00;;;10.95;;
40807;SDS011;26523;52.504;13.498;2023-02-11T03:08:29;36.03;;;12.32;;
40807;SDS011;26523;52.504;13.498;2023-02-11T03:11:00;28.92;;;11.18;;
40807;SDS011;26523;52.504;13.498;2023-02-11T03:13:28;32.65;;;10.93;;
40807;SDS011;26523;52.504;13.498;2023-02-11T03:15:57;30.90;;;10.75;;
40807;SDS011;26523;52.504;13.498;2023-02-11T03:18:32;40.95;;;12.70;;
40807;SDS011;26523;52.504;13.498;2023-02-11T03:21:02;33.38;;;11.07;;
40807;SDS011;26523;52.504;13.498;2023-02-11T03:23:36;32.63;;;11.57;;
40807;SDS011;26523;52.504;13.498;2023-02-11T03:26:20;31.05;;;12.27;;
40807;SDS011;26523;52.504;13.498;2023-02-11T03:28:53;34.75;;;11.45;;
40807;SDS011;26523;52.504;13.498;2023-02-11T03:39:15;32.72;;;14.43;;
40807;SDS011;26523;52.504;13.498;2023-02-11T03:41:45;31.50;;;12.65;;
40807;SDS011;26523;52.504;13.498;2023-02-11T03:44:13;33.05;;;11.75;;
40807;SDS011;26523;52.504;13.498;2023-02-11T03:46:41;33.10;;;11.98;;
40807;SDS011;26523;52.504;13.498;2023-02-11T03:49:12;35.10;;;11.05;;
40807;SDS011;26523;52.504;13.498;2023-02-11T03:51:41;29.42;;;11.50;;
40807;SDS011;26523;52.504;13.498;2023-02-11T03:54:09;33.40;;;12.00;;
40807;SDS011;26523;52.504;13.498;2023-02-11T03:56:40;30.02;;;13.27;;
40807;SDS011;26523;52.504;13.498;2023-02-11T03:59:13;34.05;;;11.93;;
40807;SDS011;26523;52.504;13.498;2023-02-11T04:01:39;35.88;;;11.25;;
40807;SDS011;26523;52.504;13.498;2023-02-11T04:04:05;33.72;;;12.55;;
40807;SDS011;26523;52.504;13.498;2023-02-11T04:06:30;36.90;;;13.30;;
40807;SDS011;26523;52.504;13.498;2023-02-11T04:08:56;32.22;;;11.50;;
40807;SDS011;26523;52.504;13.498;2023-02-11T04:11:22;28.13;;;12.52;;
40807;SDS011;26523;52.504;13.498;2023-02-11T04:13:47;35.10;;;13.30;;
40807;SDS011;26523;52.504;13.498;2023-02-11T04:16:13;30.15;;;12.65;;
40807;SDS011;26523;52.504;13.498;2023-02-11T04:18:39;27.27;;;11.48;;
40807;SDS011;26523;52.504;13.498;2023-02-11T04:21:04;31.70;;;12.57;;
40807;SDS011;26523;52.504;13.498;2023-02-11T04:23:31;31.33;;;11.48;;
40807;SDS011;26523;52.504;13.498;2023-02-11T04:25:56;36.33;;;14.57;;
40807;SDS011;26523;52.504;13.498;2023-02-11T04:28:22;32.42;;;12.93;;
40807;SDS011;26523;52.504;13.498;2023-02-11T04:30:48;37.28;;;13.40;;
40807;SDS011;26523;52.504;13.498;2023-02-11T04:33:15;31.00;;;12.82;;
40807;SDS011;26523;52.504;13.498;2023-02-11T04:35:41;38.10;;;13.52;;
40807;SDS011;26523;52.504;13.498;2023-02-11T04:38:07;35.97;;;12.63;;
40807;SDS011;26523;52.504;13.498;2023-02-11T04:40:32;35.22;;;13.30;;
40807;SDS011;26523;52.504;13.498;2023-02-11T04:42:58;29.67;;;12.05;;
40807;SDS011;26523;52.504;13.498;2023-02-11T04:45:23;30.77;;;11.70;;
40807;SDS011;26523;52.504;13.498;2023-02-11T04:47:49;43.97;;;15.48;;
40807;SDS011;26523;52.504;13.498;2023-02-11T04:50:15;38.38;;;11.98;;
40807;SDS011;26523;52.504;13.498;2023-02-11T04:52:40;35.53;;;13.68;;
40807;SDS011;26523;52.504;13.498;2023-02-11T04:55:06;37.25;;;13.13;;
40807;SDS011;26523;52.504;13.498;2023-02-11T04:57:32;42.83;;;15.10;;
40807;SDS011;26523;52.504;13.498;2023-02-11T04:59:58;33.53;;;13.45;;
40807;SDS011;26523;52.504;13.498;2023-02-11T05:02:23;34.40;;;14.00;;
40807;SDS011;26523;52.504;13.498;2023-02-11T05:04:49;30.13;;;13.00;;
40807;SDS011;26523;52.504;13.498;2023-02-11T05:07:15;31.33;;;12.55;;
40807;SDS011;26523;52.504;13.498;2023-02-11T05:09:40;29.58;;;11.98;;
40807;SDS011;26523;52.504;13.498;2023-02-11T05:12:06;38.35;;;14.75;;
40807;SDS011;26523;52.504;13.498;2023-02-11T05:14:32;39.55;;;14.68;;
40807;SDS011;26523;52.504;13.498;2023-02-11T05:16:57;39.30;;;14.63;;
40807;SDS011;26523;52.504;13.498;2023-02-11T05:19:23;42.03;;;15.80;;
40807;SDS011;26523;52.504;13.498;2023-02-11T05:21:49;38.95;;;13.45;;
40807;SDS011;26523;52.504;13.498;2023-02-11T05:24:14;38.30;;;13.02;;
40807;SDS011;26523;52.504;13.498;2023-02-11T05:26:40;39.63;;;14.18;;
40807;SDS011;26523;52.504;13.498;2023-02-11T05:29:06;34.92;;;14.18;;
40807;SDS011;26523;52.504;13.498;2023-02-11T05:31:31;41.00;;;13.25;;
40807;SDS011;26523;52.504;13.498;2023-02-11T05:33:57;40.42;;;14.57;;
40807;SDS011;26523;52.504;13.498;2023-02-11T05:36:23;37.63;;;13.10;;
40807;SDS011;26523;52.504;13.498;2023-02-11T05:38:48;39.38;;;14.80;;
40807;SDS011;26523;52.504;13.498;2023-02-11T05:41:14;37.80;;;14.50;;
40807;SDS011;26523;52.504;13.498;2023-02-11T05:43:40;36.17;;;13.82;;
40807;SDS011;26523;52.504;13.498;2023-02-11T05:46:06;37.25;;;14.82;;
40807;SDS011;26523;52.504;13.498;2023-02-11T05:48:32;34.50;;;14.18;;
40807;SDS011;26523;52.504;13.498;2023-02-11T05:50:58;39.08;;;13.60;;
40807;SDS011;26523;52.504;13.498;2023-02-11T05:53:23;36.75;;;14.68;;
40807;SDS011;26523;52.504;13.498;2023-02-11T05:55:49;41.00;;;14.48;;
40807;SDS011;26523;52.504;13.498;2023-02-11T05:58:15;41.17;;;15.00;;
40807;SDS011;26523;52.504;13.498;2023-02-11T06:00:41;46.42;;;14.93;;
40807;SDS011;26523;52.504;13.498;2023-02-11T06:03:06;47.13;;;14.45;;
40807;SDS011;26523;52.504;13.498;2023-02-11T06:05:32;39.80;;;15.48;;
40807;SDS011;26523;52.504;13.498;2023-02-11T06:07:58;37.75;;;13.82;;
40807;SDS011;26523;52.504;13.498;2023-02-11T06:10:24;43.50;;;17.23;;
40807;SDS011;26523;52.504;13.498;2023-02-11T06:12:50;38.40;;;15.35;;
40807;SDS011;26523;52.504;13.498;2023-02-11T06:15:16;43.08;;;15.27;;
40807;SDS011;26523;52.504;13.498;2023-02-11T06:17:42;37.45;;;13.50;;
40807;SDS011;26523;52.504;13.498;2023-02-11T06:20:08;37.47;;;16.92;;
40807;SDS011;26523;52.504;13.498;2023-02-11T06:22:34;41.78;;;15.25;;
40807;SDS011;26523;52.504;13.498;2023-02-11T06:25:00;47.25;;;18.20;;
40807;SDS011;26523;52.504;13.498;2023-02-11T06:27:26;38.22;;;14.70;;
40807;SDS011;26523;52.504;13.498;2023-02-11T06:29:52;49.97;;;17.02;;
40807;SDS011;26523;52.504;13.498;2023-02-11T06:32:17;51.47;;;15.93;;
40807;SDS011;26523;52.504;13.498;2023-02-11T06:34:44;38.97;;;15.23;;
40807;SDS011;26523;52.504;13.498;2023-02-11T06:37:10;44.50;;;16.40;;
40807;SDS011;26523;52.504;13.498;2023-02-11T06:39:35;50.58;;;18.25;;
40807;SDS011;26523;52.504;13.498;2023-02-11T06:42:01;40.97;;;14.75;;
40807;SDS011;26523;52.504;13.498;2023-02-11T06:44:27;43.88;;;16.60;;
40807;SDS011;26523;52.504;13.498;2023-02-11T06:46:52;44.10;;;15.98;;
40807;SDS011;26523;52.504;13.498;2023-02-11T06:49:18;39.75;;;15.77;;
40807;SDS011;26523;52.504;13.498;2023-02-11T06:51:44;51.60;;;17.38;;
40807;SDS011;26523;52.504;13.498;2023-02-11T06:54:09;39.63;;;15.02;;
40807;SDS011;26523;52.504;13.498;2023-02-11T06:56:38;42.50;;;15.93;;
40807;SDS011;26523;52.504;13.498;2023-02-11T06:59:04;41.33;;;15.20;;
40807;SDS011;26523;52.504;13.498;2023-02-11T07:01:30;46.05;;;16.08;;
40807;SDS011;26523;52.504;13.498;2023-02-11T07:03:56;46.83;;;17.00;;
40807;SDS011;26523;52.504;13.498;2023-02-11T07:06:23;42.05;;;16.15;;
40807;SDS011;26523;52.504;13.498;2023-02-11T07:08:51;40.83;;;15.73;;
40807;SDS011;26523;52.504;13.498;2023-02-11T07:11:22;43.92;;;16.55;;
40807;SDS011;26523;52.504;13.498;2023-02-11T07:13:50;46.85;;;18.13;;
40807;SDS011;26523;52.504;13.498;2023-02-11T07:16:17;45.88;;;17.70;;
40807;SDS011;26523;52.504;13.498;2023-02-11T07:18:43;52.88;;;18.17;;
40807;SDS011;26523;52.504;13.498;2023-02-11T07:21:10;49.92;;;15.38;;
40807;SDS011;26523;52.504;13.498;2023-02-11T07:23:38;40.88;;;15.30;;
40807;SDS011;26523;52.504;13.498;2023-02-11T07:26:09;44.60;;;15.63;;
40807;SDS011;26523;52.504;13.498;2023-02-11T07:28:36;40.75;;;14.52;;
40807;SDS011;26523;52.504;13.498;2023-02-11T07:31:06;43.05;;;15.65;;
40807;SDS011;26523;52.504;13.498;2023-02-11T07:33:33;47.10;;;16.38;;
40807;SDS011;26523;52.504;13.498;2023-02-11T07:36:00;40.38;;;13.63;;
40807;SDS011;26523;52.504;13.498;2023-02-11T07:38:26;41.55;;;16.27;;
40807;SDS011;26523;52.504;13.498;2023-02-11T07:40:51;45.85;;;15.60;;
40807;SDS011;26523;52.504;13.498;2023-02-11T07:43:17;56.13;;;16.80;;
40807;SDS011;26523;52.504;13.498;2023-02-11T07:45:43;46.20;;;16.58;;
40807;SDS011;26523;52.504;13.498;2023-02-11T07:48:08;45.50;;;15.40;;
40807;SDS011;26523;52.504;13.498;2023-02-11T07:50:34;44.70;;;15.98;;
40807;SDS011;26523;52.504;13.498;2023-02-11T07:52:59;40.22;;;15.98;;
40807;SDS011;26523;52.504;13.498;2023-02-11T07:55:26;39.83;;;15.93;;
40807;SDS011;26523;52.504;13.498;2023-02-11T07:57:52;41.65;;;16.05;;
40807;SDS011;26523;52.504;13.498;2023-02-11T08:00:17;49.75;;;16.45;;
40807;SDS011;26523;52.504;13.498;2023-02-11T08:02:43;48.30;;;15.80;;
40807;SDS011;26523;52.504;13.498;2023-02-11T08:05:09;44.75;;;16.42;;
40807;SDS011;26523;52.504;13.498;2023-02-11T08:07:35;54.17;;;18.98;;
40807;SDS011;26523;52.504;13.498;2023-02-11T08:10:00;44.00;;;16.52;;
40807;SDS011;26523;52.504;13.498;2023-02-11T08:12:26;51.90;;;17.00;;
40807;SDS011;26523;52.504;13.498;2023-02-11T08:14:52;42.80;;;16.17;;
40807;SDS011;26523;52.504;13.498;2023-02-11T08:17:17;45.97;;;16.45;;
40807;SDS011;26523;52.504;13.498;2023-02-11T08:19:43;44.83;;;16.60;;
40807;SDS011;26523;52.504;13.498;2023-02-11T08:22:09;38.72;;;15.02;;
40807;SDS011;26523;52.504;13.498;2023-02-11T08:24:35;44.63;;;15.60;;
40807;SDS011;26523;52.504;13.498;2023-02-11T08:27:00;43.35;;;16.80;;
40807;SDS011;26523;52.504;13.498;2023-02-11T08:29:26;40.22;;;15.85;;
40807;SDS011;26523;52.504;13.498;2023-02-11T08:31:51;41.58;;;16.90;;
40807;SDS011;26523;52.504;13.498;2023-02-11T08:34:17;41.03;;;15.48;;
40807;SDS011;26523;52.504;13.498;2023-02-11T08:36:43;45.92;;;16.35;;
40807;SDS011;26523;52.504;13.498;2023-02-11T08:39:17;46.55;;;16.45;;
40807;SDS011;26523;52.504;13.498;2023-02-11T08:41:49;39.25;;;14.77;;
40807;SDS011;26523;52.504;13.498;2023-02-11T08:44:17;43.97;;;17.75;;
40807;SDS011;26523;52.504;13.498;2023-02-11T08:46:44;41.53;;;14.23;;
40807;SDS011;26523;52.504;13.498;2023-02-11T08:49:10;45.92;;;15.60;;
40807;SDS011;26523;52.504;13.498;2023-02-11T08:51:36;38.42;;;14.27;;
40807;SDS011;26523;52.504;13.498;2023-02-11T08:54:02;49.25;;;17.33;;
40807;SDS011;26523;52.504;13.498;2023-02-11T08:56:28;49.70;;;15.50;;
40807;SDS011;26523;52.504;13.498;2023-02-11T08:58:55;51.97;;;15.70;;
40807;SDS011;26523;52.504;13.498;2023-02-11T09:01:22;44.53;;;15.82;;
40807;SDS011;26523;52.504;13.498;2023-02-11T09:03:50;42.22;;;14.02;;
40807;SDS011;26523;52.504;13.498;2023-02-11T09:06:16;39.67;;;15.02;;
40807;SDS011;26523;52.504;13.498;2023-02-11T09:08:44;49.08;;;15.07;;
40807;SDS011;26523;52.504;13.498;2023-02-11T09:11:13;42.05;;;14.45;;
40807;SDS011;26523;52.504;13.498;2023-02-11T09:13:39;41.83;;;14.77;;
40807;SDS011;26523;52.504;13.498;2023-02-11T09:16:06;41.15;;;14.05;;
40807;SDS011;26523;52.504;13.498;2023-02-11T09:18:32;42.30;;;15.07;;
40807;SDS011;26523;52.504;13.498;2023-02-11T09:21:01;44.22;;;14.05;;
40807;SDS011;26523;52.504;13.498;2023-02-11T09:23:29;37.85;;;15.52;;
40807;SDS011;26523;52.504;13.498;2023-02-11T09:25:54;40.65;;;14.38;;
40807;SDS011;26523;52.504;13.498;2023-02-11T09:28:20;39.63;;;13.13;;
40807;SDS011;26523;52.504;13.498;2023-02-11T09:30:46;43.90;;;15.32;;
40807;SDS011;26523;52.504;13.498;2023-02-11T09:33:11;34.92;;;14.63;;
40807;SDS011;26523;52.504;13.498;2023-02-11T09:35:37;38.35;;;15.75;;
40807;SDS011;26523;52.504;13.498;2023-02-11T09:38:02;37.22;;;13.57;;
40807;SDS011;26523;52.504;13.498;2023-02-11T09:40:28;37.03;;;12.95;;
40807;SDS011;26523;52.504;13.498;2023-02-11T09:43:07;40.50;;;14.98;;
40807;SDS011;26523;52.504;13.498;2023-02-11T09:45:41;40.17;;;13.48;;
40807;SDS011;26523;52.504;13.498;2023-02-11T09:50:51;32.10;;;12.25;;
40807;SDS011;26523;52.504;13.498;2023-02-11T09:53:26;38.45;;;14.35;;
40807;SDS011;26523;52.504;13.498;2023-02-11T09:55:54;38.47;;;14.38;;
40807;SDS011;26523;52.504;13.498;2023-02-11T09:58:27;32.25;;;12.75;;
40807;SDS011;26523;52.504;13.498;2023-02-11T10:22:49;35.92;;;12.88;;
40807;SDS011;26523;52.504;13.498;2023-02-11T10:27:49;38.80;;;13.10;;
40807;SDS011;26523;52.504;13.498;2023-02-11T10:35:23;31.92;;;11.13;;
40807;SDS011;26523;52.504;13.498;2023-02-11T10:37:51;33.75;;;12.43;;
40807;SDS011;26523;52.504;13.498;2023-02-11T10:40:20;33.85;;;12.60;;
40807;SDS011;26523;52.504;13.498;2023-02-11T10:42:49;35.17;;;14.32;;
40807;SDS011;26523;52.504;13.498;2023-02-11T10:47:54;38.05;;;12.45;;
40807;SDS011;26523;52.504;13.498;2023-02-11T10:50:24;41.78;;;13.45;;
40807;SDS011;26523;52.504;13.498;2023-02-11T10:52:52;33.80;;;12.43;;
40807;SDS011;26523;52.504;13.498;2023-02-11T10:55:34;32.40;;;12.40;;
40807;SDS011;26523;52.504;13.498;2023-02-11T10:58:00;33.38;;;12.25;;
40807;SDS011;26523;52.504;13.498;2023-02-11T11:03:01;40.35;;;13.40;;
40807;SDS011;26523;52.504;13.498;2023-02-11T11:05:36;32.13;;;11.63;;
40807;SDS011;26523;52.504;13.498;2023-02-11T11:08:14;28.20;;;11.30;;
40807;SDS011;26523;52.504;13.498;2023-02-11T11:10:42;38.20;;;13.30;;
40807;SDS011;26523;52.504;13.498;2023-02-11T11:13:27;40.88;;;14.43;;
40807;SDS011;26523;52.504;13.498;2023-02-11T11:18:38;30.40;;;10.80;;
40807;SDS011;26523;52.504;13.498;2023-02-11T11:21:16;38.83;;;12.25;;
40807;SDS011;26523;52.504;13.498;2023-02-11T11:26:18;35.38;;;12.30;;
40807;SDS011;26523;52.504;13.498;2023-02-11T11:28:58;29.10;;;11.23;;
40807;SDS011;26523;52.504;13.498;2023-02-11T11:31:33;24.88;;;10.98;;
40807;SDS011;26523;52.504;13.498;2023-02-11T11:34:20;28.98;;;12.05;;
40807;SDS011;26523;52.504;13.498;2023-02-11T11:36:49;29.13;;;11.38;;
40807;SDS011;26523;52.504;13.498;2023-02-11T11:47:51;30.33;;;12.20;;
40807;SDS011;26523;52.504;13.498;2023-02-11T11:50:42;25.35;;;9.93;;
40807;SDS011;26523;52.504;13.498;2023-02-11T11:53:19;29.60;;;9.93;;
40807;SDS011;26523;52.504;13.498;2023-02-11T11:58:37;18.13;;;9.02;;
40807;SDS011;26523;52.504;13.498;2023-02-11T12:07:01;23.27;;;9.48;;
40807;SDS011;26523;52.504;13.498;2023-02-11T12:10:21;26.95;;;10.25;;
40807;SDS011;26523;52.504;13.498;2023-02-11T12:12:26;24.08;;;9.05;;
40807;SDS011;26523;52.504;13.498;2023-02-11T12:23:33;28.42;;;10.43;;
40807;SDS011;26523;52.504;13.498;2023-02-11T12:26:16;23.92;;;8.43;;
40807;SDS011;26523;52.504;13.498;2023-02-11T12:37:08;31.25;;;10.38;;
40807;SDS011;26523;52.504;13.498;2023-02-11T12:40:04;19.65;;;8.25;;
40807;SDS011;26523;52.504;13.498;2023-02-11T12:42:46;18.40;;;8.48;;
40807;SDS011;26523;52.504;13.498;2023-02-11T12:48:30;20.40;;;7.97;;
40807;SDS011;26523;52.504;13.498;2023-02-11T12:53:45;17.48;;;8.02;;
40807;SDS011;26523;52.504;13.498;2023-02-11T13:01:29;16.33;;;6.70;;
40807;SDS011;26523;52.504;13.498;2023-02-11T13:04:07;22.83;;;7.35;;
40807;SDS011;26523;52.504;13.498;2023-02-11T13:06:51;17.50;;;7.60;;
40807;SDS011;26523;52.504;13.498;2023-02-11T13:09:25;16.58;;;7.38;;
40807;SDS011;26523;52.504;13.498;2023-02-11T13:11:57;20.98;;;8.18;;
40807;SDS011;26523;52.504;13.498;2023-02-11T13:14:47;19.95;;;6.95;;
40807;SDS011;26523;52.504;13.498;2023-02-11T13:17:21;18.90;;;7.07;;
40807;SDS011;26523;52.504;13.498;2023-02-11T13:19:58;18.67;;;7.35;;
40807;SDS011;26523;52.504;13.498;2023-02-11T13:22:39;19.23;;;8.18;;
40807;SDS011;26523;52.504;13.498;2023-02-11T13:30:36;20.45;;;8.25;;
40807;SDS011;26523;52.504;13.498;2023-02-11T13:36:11;17.80;;;8.77;;
40807;SDS011;26523;52.504;13.498;2023-02-11T13:38:39;17.98;;;8.77;;
40807;SDS011;26523;52.504;13.498;2023-02-11T13:41:12;25.35;;;9.65;;
40807;SDS011;26523;52.504;13.498;2023-02-11T13:43:58;19.35;;;8.80;;
40807;SDS011;26523;52.504;13.498;2023-02-11T13:46:25;16.02;;;7.70;;
40807;SDS011;26523;52.504;13.498;2023-02-11T13:48:53;26.60;;;9.07;;
40807;SDS011;26523;52.504;13.498;2023-02-11T13:54:04;21.65;;;8.85;;
40807;SDS011;26523;52.504;13.498;2023-02-11T13:59:00;16.40;;;8.30;;
40807;SDS011;26523;52.504;13.498;2023-02-11T14:05:00;21.30;;;8.57;;
40807;SDS011;26523;52.504;13.498;2023-02-11T14:10:57;17.83;;;8.30;;
40807;SDS011;26523;52.504;13.498;2023-02-11T14:13:30;18.88;;;8.40;;
40807;SDS011;26523;52.504;13.498;2023-02-11T14:16:04;20.90;;;8.57;;
40807;SDS011;26523;52.504;13.498;2023-02-11T14:21:09;16.98;;;8.00;;
40807;SDS011;26523;52.504;13.498;2023-02-11T14:23:36;18.98;;;8.23;;
40807;SDS011;26523;52.504;13.498;2023-02-11T14:26:24;18.30;;;8.50;;
40807;SDS011;26523;52.504;13.498;2023-02-11T14:31:42;19.48;;;7.82;;
40807;SDS011;26523;52.504;13.498;2023-02-11T14:34:40;19.05;;;8.73;;
40807;SDS011;26523;52.504;13.498;2023-02-11T14:43:04;13.38;;;6.70;;
40807;SDS011;26523;52.504;13.498;2023-02-11T14:45:36;16.58;;;7.45;;
40807;SDS011;26523;52.504;13.498;2023-02-11T14:48:14;14.45;;;6.57;;
40807;SDS011;26523;52.504;13.498;2023-02-11T14:50:46;16.92;;;7.15;;
40807;SDS011;26523;52.504;13.498;2023-02-11T14:53:16;16.88;;;7.10;;
40807;SDS011;26523;52.504;13.498;2023-02-11T14:55:46;18.85;;;7.07;;
40807;SDS011;26523;52.504;13.498;2023-02-11T14:58:17;17.85;;;7.43;;
40807;SDS011;26523;52.504;13.498;2023-02-11T15:00:52;11.88;;;5.88;;
40807;SDS011;26523;52.504;13.498;2023-02-11T15:06:04;9.85;;;5.22;;
40807;SDS011;26523;52.504;13.498;2023-02-11T15:08:55;11.75;;;5.43;;
40807;SDS011;26523;52.504;13.498;2023-02-11T15:11:25;17.80;;;6.72;;
40807;SDS011;26523;52.504;13.498;2023-02-11T15:13:52;15.82;;;7.47;;
40807;SDS011;26523;52.504;13.498;2023-02-11T15:16:24;11.80;;;5.63;;
40807;SDS011;26523;52.504;13.498;2023-02-11T15:18:52;11.30;;;5.10;;
40807;SDS011;26523;52.504;13.498;2023-02-11T15:21:27;11.40;;;5.82;;
40807;SDS011;26523;52.504;13.498;2023-02-11T15:24:00;13.18;;;5.78;;
40807;SDS011;26523;52.504;13.498;2023-02-11T15:27:02;14.20;;;5.03;;
40807;SDS011;26523;52.504;13.498;2023-02-11T15:29:49;12.90;;;5.80;;
40807;SDS011;26523;52.504;13.498;2023-02-11T15:32:16;13.35;;;5.57;;
40807;SDS011;26523;52.504;13.498;2023-02-11T15:34:44;13.70;;;5.20;;
40807;SDS011;26523;52.504;13.498;2023-02-11T15:37:29;8.88;;;4.60;;
40807;SDS011;26523;52.504;13.498;2023-02-11T15:39:54;9.15;;;4.65;;
40807;SDS011;26523;52.504;13.498;2023-02-11T15:43:25;10.00;;;4.43;;
40807;SDS011;26523;52.504;13.498;2023-02-11T15:45:44;14.70;;;4.63;;
40807;SDS011;26523;52.504;13.498;2023-02-11T15:48:21;14.40;;;5.57;;
40807;SDS011;26523;52.504;13.498;2023-02-11T15:50:52;13.80;;;4.68;;
40807;SDS011;26523;52.504;13.498;2023-02-11T15:53:25;9.57;;;4.22;;
40807;SDS011;26523;52.504;13.498;2023-02-11T15:58:37;9.30;;;3.88;;
40807;SDS011;26523;52.504;13.498;2023-02-11T16:01:04;10.93;;;4.55;;
40807;SDS011;26523;52.504;13.498;2023-02-11T16:03:30;11.43;;;4.63;;
40807;SDS011;26523;52.504;13.498;2023-02-11T16:06:42;10.43;;;3.97;;
40807;SDS011;26523;52.504;13.498;2023-02-11T16:09:00;8.70;;;4.22;;
40807;SDS011;26523;52.504;13.498;2023-02-11T16:11:31;11.48;;;4.55;;
40807;SDS011;26523;52.504;13.498;2023-02-11T16:13:59;9.10;;;5.07;;
40807;SDS011;26523;52.504;13.498;2023-02-11T16:16:29;10.57;;;4.85;;
40807;SDS011;26523;52.504;13.498;2023-02-11T16:19:00;9.50;;;4.70;;
40807;SDS011;26523;52.504;13.498;2023-02-11T16:21:28;9.35;;;4.78;;
40807;SDS011;26523;52.504;13.498;2023-02-11T16:23:58;11.18;;;4.47;;
40807;SDS011;26523;52.504;13.498;2023-02-11T16:26:37;8.82;;;5.10;;
40807;SDS011;26523;52.504;13.498;2023-02-11T16:29:11;10.48;;;4.65;;
40807;SDS011;26523;52.504;13.498;2023-02-11T16:31:43;8.60;;;4.38;;
40807;SDS011;26523;52.504;13.498;2023-02-11T16:34:22;10.18;;;4.93;;
40807;SDS011;26523;52.504;13.498;2023-02-11T16:36:49;11.60;;;5.28;;
40807;SDS011;26523;52.504;13.498;2023-02-11T16:39:16;9.15;;;4.80;;
40807;SDS011;26523;52.504;13.498;2023-02-11T16:41:45;11.57;;;5.00;;
40807;SDS011;26523;52.504;13.498;2023-02-11T16:44:11;12.02;;;4.93;;
40807;SDS011;26523;52.504;13.498;2023-02-11T16:46:37;10.32;;;5.30;;
40807;SDS011;26523;52.504;13.498;2023-02-11T16:49:25;11.68;;;4.70;;
40807;SDS011;26523;52.504;13.498;2023-02-11T16:52:00;8.85;;;4.00;;
40807;SDS011;26523;52.504;13.498;2023-02-11T16:54:29;8.30;;;4.38;;
40807;SDS011;26523;52.504;13.498;2023-02-11T16:56:55;9.00;;;4.30;;
40807;SDS011;26523;52.504;13.498;2023-02-11T16:59:21;9.00;;;4.72;;
40807;SDS011;26523;52.504;13.498;2023-02-11T17:01:46;10.48;;;4.32;;
40807;SDS011;26523;52.504;13.498;2023-02-11T17:04:18;8.90;;;4.35;;
40807;SDS011;26523;52.504;13.498;2023-02-11T17:06:45;7.40;;;3.53;;
40807;SDS011;26523;52.504;13.498;2023-02-11T17:09:15;7.38;;;3.45;;
40807;SDS011;26523;52.504;13.498;2023-02-11T17:11:43;12.07;;;3.58;;
40807;SDS011;26523;52.504;13.498;2023-02-11T17:14:09;7.18;;;3.20;;